sensor_id;sensor_type;location;lat;lon;timestamp;P1;durP1;ratioP1;P2;durP2;ratioP2
52180;SDS011;38158;53.338;6.514;2023-08-17T00:00:14;4.00;;;1.38;;
52180;SDS011;38158;53.338;6.514;2023-08-17T00:02:43;4.28;;;1.38;;
52180;SDS011;38158;53.338;6.514;2023-08-17T00:05:08;3.60;;;1.33;;
52180;SDS011;38158;53.338;6.514;2023-08-17T00:07:34;4.03;;;1.30;;
52180;SDS011;38158;53.338;6.514;2023-08-17T00:10:00;3.78;;;1.23;;
52180;SDS011;38158;53.338;6.514;2023-08-17T00:12:27;7.20;;;1.52;;
52180;SDS011;38158;53.338;6.514;2023-08-17T00:14:52;5.43;;;1.55;;
52180;SDS011;38158;53.338;6.514;2023-08-17T00:17:18;4.75;;;1.30;;
52180;SDS011;38158;53.338;6.514;2023-08-17T00:19:44;3.47;;;1.10;;
52180;SDS011;38158;53.338;6.514;2023-08-17T00:22:10;3.88;;;1.23;;
52180;SDS011;38158;53.338;6.514;2023-08-17T00:24:36;5.95;;;1.60;;
52180;SDS011;38158;53.338;6.514;2023-08-17T00:27:02;3.47;;;1.27;;
52180;SDS011;38158;53.338;6.514;2023-08-17T00:29:29;5.05;;;1.27;;
52180;SDS011;38158;53.338;6.514;2023-08-17T00:31:55;3.42;;;1.38;;
52180;SDS011;38158;53.338;6.514;2023-08-17T00:34:20;5.13;;;1.30;;
52180;SDS011;38158;53.338;6.514;2023-08-17T00:36:46;3.58;;;1.42;;
52180;SDS011;38158;53.338;6.514;2023-08-17T00:39:12;3.58;;;1.20;;
52180;SDS011;38158;53.338;6.514;2023-08-17T00:44:05;5.20;;;1.60;;
52180;SDS011;38158;53.338;6.514;2023-08-17T00:46:31;3.78;;;1.58;;
52180;SDS011;38158;53.338;6.514;2023-08-17T00:48:57;4.50;;;1.70;;
52180;SDS011;38158;53.338;6.514;2023-08-17T00:51:23;5.03;;;1.70;;
52180;SDS011;38158;53.338;6.514;2023-08-17T00:53:50;5.65;;;2.03;;
52180;SDS011;38158;53.338;6.514;2023-08-17T00:56:17;5.38;;;1.60;;
52180;SDS011;38158;53.338;6.514;2023-08-17T00:58:43;4.35;;;1.70;;
52180;SDS011;38158;53.338;6.514;2023-08-17T01:01:09;3.58;;;1.42;;
52180;SDS011;38158;53.338;6.514;2023-08-17T01:03:35;4.25;;;1.40;;
52180;SDS011;38158;53.338;6.514;2023-08-17T01:06:01;4.40;;;1.45;;
52180;SDS011;38158;53.338;6.514;2023-08-17T01:08:28;3.72;;;1.88;;
52180;SDS011;38158;53.338;6.514;2023-08-17T01:16:54;4.38;;;1.58;;
52180;SDS011;38158;53.338;6.514;2023-08-17T01:19:26;3.85;;;1.55;;
52180;SDS011;38158;53.338;6.514;2023-08-17T01:21:54;5.80;;;1.30;;
52180;SDS011;38158;53.338;6.514;2023-08-17T01:24:26;4.57;;;1.75;;
52180;SDS011;38158;53.338;6.514;2023-08-17T01:26:51;3.78;;;1.58;;
52180;SDS011;38158;53.338;6.514;2023-08-17T01:29:17;4.15;;;1.80;;
52180;SDS011;38158;53.338;6.514;2023-08-17T01:31:54;4.75;;;1.88;;
52180;SDS011;38158;53.338;6.514;2023-08-17T01:34:36;5.13;;;1.60;;
52180;SDS011;38158;53.338;6.514;2023-08-17T01:37:13;8.32;;;1.73;;
52180;SDS011;38158;53.338;6.514;2023-08-17T01:39:44;5.18;;;1.88;;
52180;SDS011;38158;53.338;6.514;2023-08-17T01:42:12;4.13;;;1.48;;
52180;SDS011;38158;53.338;6.514;2023-08-17T01:44:39;4.72;;;1.90;;
52180;SDS011;38158;53.338;6.514;2023-08-17T01:47:04;4.32;;;1.88;;
52180;SDS011;38158;53.338;6.514;2023-08-17T01:49:30;4.35;;;1.90;;
52180;SDS011;38158;53.338;6.514;2023-08-17T01:51:56;4.00;;;1.58;;
52180;SDS011;38158;53.338;6.514;2023-08-17T01:54:22;3.25;;;1.40;;
52180;SDS011;38158;53.338;6.514;2023-08-17T01:56:48;5.15;;;1.90;;
52180;SDS011;38158;53.338;6.514;2023-08-17T01:59:14;5.68;;;1.50;;
52180;SDS011;38158;53.338;6.514;2023-08-17T02:01:40;5.10;;;1.75;;
52180;SDS011;38158;53.338;6.514;2023-08-17T02:04:05;4.03;;;1.20;;
52180;SDS011;38158;53.338;6.514;2023-08-17T02:06:31;4.82;;;1.65;;
52180;SDS011;38158;53.338;6.514;2023-08-17T02:08:58;5.72;;;2.00;;
52180;SDS011;38158;53.338;6.514;2023-08-17T02:11:23;3.53;;;1.77;;
52180;SDS011;38158;53.338;6.514;2023-08-17T02:13:49;4.90;;;1.98;;
52180;SDS011;38158;53.338;6.514;2023-08-17T02:16:15;4.90;;;1.65;;
52180;SDS011;38158;53.338;6.514;2023-08-17T02:18:40;6.57;;;1.65;;
52180;SDS011;38158;53.338;6.514;2023-08-17T02:21:06;8.27;;;1.80;;
52180;SDS011;38158;53.338;6.514;2023-08-17T02:23:32;5.82;;;1.52;;
52180;SDS011;38158;53.338;6.514;2023-08-17T02:26:00;7.65;;;1.63;;
52180;SDS011;38158;53.338;6.514;2023-08-17T02:28:26;3.60;;;1.80;;
52180;SDS011;38158;53.338;6.514;2023-08-17T02:30:55;4.72;;;1.63;;
52180;SDS011;38158;53.338;6.514;2023-08-17T02:33:22;5.55;;;1.85;;
52180;SDS011;38158;53.338;6.514;2023-08-17T02:35:51;4.45;;;1.88;;
52180;SDS011;38158;53.338;6.514;2023-08-17T02:38:17;3.40;;;1.85;;
52180;SDS011;38158;53.338;6.514;2023-08-17T02:40:43;5.18;;;1.83;;
52180;SDS011;38158;53.338;6.514;2023-08-17T02:43:08;7.88;;;2.17;;
52180;SDS011;38158;53.338;6.514;2023-08-17T02:45:34;5.10;;;2.22;;
52180;SDS011;38158;53.338;6.514;2023-08-17T02:48:00;4.60;;;2.08;;
52180;SDS011;38158;53.338;6.514;2023-08-17T02:50:26;5.88;;;2.15;;
52180;SDS011;38158;53.338;6.514;2023-08-17T02:52:52;6.28;;;2.10;;
52180;SDS011;38158;53.338;6.514;2023-08-17T02:55:17;5.30;;;2.30;;
52180;SDS011;38158;53.338;6.514;2023-08-17T02:57:43;4.45;;;2.10;;
52180;SDS011;38158;53.338;6.514;2023-08-17T03:00:09;5.22;;;2.33;;
52180;SDS011;38158;53.338;6.514;2023-08-17T03:02:35;4.68;;;1.98;;
52180;SDS011;38158;53.338;6.514;2023-08-17T03:05:00;4.20;;;2.10;;
52180;SDS011;38158;53.338;6.514;2023-08-17T03:07:26;2.90;;;1.85;;
52180;SDS011;38158;53.338;6.514;2023-08-17T03:09:52;5.38;;;2.50;;
52180;SDS011;38158;53.338;6.514;2023-08-17T03:12:18;3.72;;;1.92;;
52180;SDS011;38158;53.338;6.514;2023-08-17T03:14:43;3.85;;;2.00;;
52180;SDS011;38158;53.338;6.514;2023-08-17T03:17:09;4.07;;;2.22;;
52180;SDS011;38158;53.338;6.514;2023-08-17T03:19:34;3.85;;;1.90;;
52180;SDS011;38158;53.338;6.514;2023-08-17T03:22:00;4.32;;;2.10;;
52180;SDS011;38158;53.338;6.514;2023-08-17T03:24:26;3.60;;;1.83;;
52180;SDS011;38158;53.338;6.514;2023-08-17T03:26:51;5.95;;;2.45;;
52180;SDS011;38158;53.338;6.514;2023-08-17T03:29:17;4.78;;;2.15;;
52180;SDS011;38158;53.338;6.514;2023-08-17T03:31:43;5.50;;;2.05;;
52180;SDS011;38158;53.338;6.514;2023-08-17T03:34:08;5.00;;;2.10;;
52180;SDS011;38158;53.338;6.514;2023-08-17T03:36:34;3.55;;;2.08;;
52180;SDS011;38158;53.338;6.514;2023-08-17T03:38:59;4.57;;;2.00;;
52180;SDS011;38158;53.338;6.514;2023-08-17T03:41:25;3.08;;;2.00;;
52180;SDS011;38158;53.338;6.514;2023-08-17T03:43:51;4.13;;;1.70;;
52180;SDS011;38158;53.338;6.514;2023-08-17T03:46:16;4.20;;;1.52;;
52180;SDS011;38158;53.338;6.514;2023-08-17T03:48:42;3.80;;;1.50;;
52180;SDS011;38158;53.338;6.514;2023-08-17T03:51:08;4.97;;;1.80;;
52180;SDS011;38158;53.338;6.514;2023-08-17T03:53:33;5.38;;;1.98;;
52180;SDS011;38158;53.338;6.514;2023-08-17T03:55:59;6.07;;;2.08;;
52180;SDS011;38158;53.338;6.514;2023-08-17T03:58:25;4.20;;;1.83;;
52180;SDS011;38158;53.338;6.514;2023-08-17T04:00:58;3.53;;;1.70;;
52180;SDS011;38158;53.338;6.514;2023-08-17T04:03:25;4.25;;;1.60;;
52180;SDS011;38158;53.338;6.514;2023-08-17T04:05:51;5.00;;;1.77;;
52180;SDS011;38158;53.338;6.514;2023-08-17T04:08:17;5.53;;;1.63;;
52180;SDS011;38158;53.338;6.514;2023-08-17T04:10:42;4.57;;;1.60;;
52180;SDS011;38158;53.338;6.514;2023-08-17T04:13:08;4.00;;;1.33;;
52180;SDS011;38158;53.338;6.514;2023-08-17T04:15:34;8.23;;;1.58;;
52180;SDS011;38158;53.338;6.514;2023-08-17T04:17:59;3.72;;;1.40;;
52180;SDS011;38158;53.338;6.514;2023-08-17T04:20:25;4.78;;;1.50;;
52180;SDS011;38158;53.338;6.514;2023-08-17T04:22:51;3.25;;;1.17;;
52180;SDS011;38158;53.338;6.514;2023-08-17T04:25:16;5.40;;;1.33;;
52180;SDS011;38158;53.338;6.514;2023-08-17T04:27:42;3.53;;;0.93;;
52180;SDS011;38158;53.338;6.514;2023-08-17T04:30:08;2.97;;;1.20;;
52180;SDS011;38158;53.338;6.514;2023-08-17T04:32:34;4.38;;;1.00;;
52180;SDS011;38158;53.338;6.514;2023-08-17T04:35:00;4.15;;;1.30;;
52180;SDS011;38158;53.338;6.514;2023-08-17T04:37:26;6.05;;;1.30;;
52180;SDS011;38158;53.338;6.514;2023-08-17T04:39:52;5.55;;;1.35;;
52180;SDS011;38158;53.338;6.514;2023-08-17T04:42:17;2.85;;;0.90;;
52180;SDS011;38158;53.338;6.514;2023-08-17T04:47:10;4.55;;;1.27;;
52180;SDS011;38158;53.338;6.514;2023-08-17T04:49:36;3.78;;;1.10;;
52180;SDS011;38158;53.338;6.514;2023-08-17T04:52:02;2.65;;;0.85;;
52180;SDS011;38158;53.338;6.514;2023-08-17T04:54:28;3.88;;;1.10;;
52180;SDS011;38158;53.338;6.514;2023-08-17T04:56:53;3.33;;;1.13;;
52180;SDS011;38158;53.338;6.514;2023-08-17T04:59:19;4.25;;;1.13;;
52180;SDS011;38158;53.338;6.514;2023-08-17T05:01:45;5.82;;;1.23;;
52180;SDS011;38158;53.338;6.514;2023-08-17T05:04:10;4.00;;;1.45;;
52180;SDS011;38158;53.338;6.514;2023-08-17T05:06:36;4.72;;;1.23;;
52180;SDS011;38158;53.338;6.514;2023-08-17T05:09:03;4.57;;;1.27;;
52180;SDS011;38158;53.338;6.514;2023-08-17T05:11:30;2.58;;;1.23;;
52180;SDS011;38158;53.338;6.514;2023-08-17T05:13:56;3.28;;;1.13;;
52180;SDS011;38158;53.338;6.514;2023-08-17T05:16:21;4.63;;;1.33;;
52180;SDS011;38158;53.338;6.514;2023-08-17T05:18:47;2.08;;;1.00;;
52180;SDS011;38158;53.338;6.514;2023-08-17T05:21:13;3.08;;;1.15;;
52180;SDS011;38158;53.338;6.514;2023-08-17T05:23:38;3.28;;;0.80;;
52180;SDS011;38158;53.338;6.514;2023-08-17T05:26:04;2.20;;;0.90;;
52180;SDS011;38158;53.338;6.514;2023-08-17T05:28:30;2.67;;;0.77;;
52180;SDS011;38158;53.338;6.514;2023-08-17T05:30:55;3.30;;;1.15;;
52180;SDS011;38158;53.338;6.514;2023-08-17T05:33:21;7.05;;;1.10;;
52180;SDS011;38158;53.338;6.514;2023-08-17T05:35:52;3.50;;;0.90;;
52180;SDS011;38158;53.338;6.514;2023-08-17T05:38:19;5.15;;;1.27;;
52180;SDS011;38158;53.338;6.514;2023-08-17T05:40:45;4.78;;;1.17;;
52180;SDS011;38158;53.338;6.514;2023-08-17T05:43:10;3.47;;;1.08;;
52180;SDS011;38158;53.338;6.514;2023-08-17T05:45:36;2.47;;;0.90;;
52180;SDS011;38158;53.338;6.514;2023-08-17T05:48:02;2.80;;;0.75;;
52180;SDS011;38158;53.338;6.514;2023-08-17T05:50:28;4.35;;;1.17;;
52180;SDS011;38158;53.338;6.514;2023-08-17T05:52:54;1.93;;;1.03;;
52180;SDS011;38158;53.338;6.514;2023-08-17T05:55:20;4.32;;;1.40;;
52180;SDS011;38158;53.338;6.514;2023-08-17T05:57:45;3.83;;;1.00;;
52180;SDS011;38158;53.338;6.514;2023-08-17T06:00:11;2.60;;;1.10;;
52180;SDS011;38158;53.338;6.514;2023-08-17T06:02:38;2.42;;;1.17;;
52180;SDS011;38158;53.338;6.514;2023-08-17T06:05:04;2.97;;;1.17;;
52180;SDS011;38158;53.338;6.514;2023-08-17T06:07:30;3.75;;;1.63;;
52180;SDS011;38158;53.338;6.514;2023-08-17T06:09:56;4.45;;;1.40;;
52180;SDS011;38158;53.338;6.514;2023-08-17T06:12:21;4.95;;;1.30;;
52180;SDS011;38158;53.338;6.514;2023-08-17T06:14:47;4.22;;;1.10;;
52180;SDS011;38158;53.338;6.514;2023-08-17T06:17:13;2.28;;;1.08;;
52180;SDS011;38158;53.338;6.514;2023-08-17T06:19:41;2.85;;;1.30;;
52180;SDS011;38158;53.338;6.514;2023-08-17T06:22:07;3.35;;;1.10;;
52180;SDS011;38158;53.338;6.514;2023-08-17T06:24:33;5.00;;;1.05;;
52180;SDS011;38158;53.338;6.514;2023-08-17T06:26:58;3.47;;;1.20;;
52180;SDS011;38158;53.338;6.514;2023-08-17T06:29:24;3.35;;;0.93;;
52180;SDS011;38158;53.338;6.514;2023-08-17T06:31:50;2.47;;;1.00;;
52180;SDS011;38158;53.338;6.514;2023-08-17T06:34:15;1.65;;;0.80;;
52180;SDS011;38158;53.338;6.514;2023-08-17T06:36:41;3.78;;;0.90;;
52180;SDS011;38158;53.338;6.514;2023-08-17T06:39:06;5.65;;;0.90;;
52180;SDS011;38158;53.338;6.514;2023-08-17T06:41:33;5.78;;;0.90;;
52180;SDS011;38158;53.338;6.514;2023-08-17T06:43:59;4.25;;;0.90;;
52180;SDS011;38158;53.338;6.514;2023-08-17T06:46:25;3.42;;;1.10;;
52180;SDS011;38158;53.338;6.514;2023-08-17T06:48:50;3.17;;;1.10;;
52180;SDS011;38158;53.338;6.514;2023-08-17T06:51:16;2.90;;;1.02;;
52180;SDS011;38158;53.338;6.514;2023-08-17T06:53:42;2.20;;;0.80;;
52180;SDS011;38158;53.338;6.514;2023-08-17T06:56:08;4.00;;;0.85;;
52180;SDS011;38158;53.338;6.514;2023-08-17T06:58:34;8.00;;;0.85;;
52180;SDS011;38158;53.338;6.514;2023-08-17T07:01:00;1.83;;;0.90;;
52180;SDS011;38158;53.338;6.514;2023-08-17T07:03:26;3.85;;;1.65;;
52180;SDS011;38158;53.338;6.514;2023-08-17T07:05:52;2.47;;;0.80;;
52180;SDS011;38158;53.338;6.514;2023-08-17T07:08:17;1.90;;;0.70;;
52180;SDS011;38158;53.338;6.514;2023-08-17T07:10:43;3.13;;;0.95;;
52180;SDS011;38158;53.338;6.514;2023-08-17T07:13:09;3.53;;;0.73;;
52180;SDS011;38158;53.338;6.514;2023-08-17T07:15:35;2.03;;;0.60;;
52180;SDS011;38158;53.338;6.514;2023-08-17T07:18:01;2.58;;;0.45;;
52180;SDS011;38158;53.338;6.514;2023-08-17T07:20:27;6.00;;;0.75;;
52180;SDS011;38158;53.338;6.514;2023-08-17T07:22:52;1.75;;;0.50;;
52180;SDS011;38158;53.338;6.514;2023-08-17T07:25:18;2.65;;;0.60;;
52180;SDS011;38158;53.338;6.514;2023-08-17T07:27:44;2.17;;;0.50;;
52180;SDS011;38158;53.338;6.514;2023-08-17T07:30:10;1.75;;;0.60;;
52180;SDS011;38158;53.338;6.514;2023-08-17T07:32:36;4.03;;;0.83;;
52180;SDS011;38158;53.338;6.514;2023-08-17T07:35:01;5.45;;;0.70;;
52180;SDS011;38158;53.338;6.514;2023-08-17T07:37:27;1.80;;;0.70;;
52180;SDS011;38158;53.338;6.514;2023-08-17T07:39:58;1.73;;;0.50;;
52180;SDS011;38158;53.338;6.514;2023-08-17T07:42:23;8.05;;;1.20;;
52180;SDS011;38158;53.338;6.514;2023-08-17T07:44:49;4.13;;;0.80;;
52180;SDS011;38158;53.338;6.514;2023-08-17T07:47:15;5.35;;;1.90;;
52180;SDS011;38158;53.338;6.514;2023-08-17T07:49:40;6.03;;;1.00;;
52180;SDS011;38158;53.338;6.514;2023-08-17T07:52:06;4.55;;;0.70;;
52180;SDS011;38158;53.338;6.514;2023-08-17T07:54:32;4.63;;;0.70;;
52180;SDS011;38158;53.338;6.514;2023-08-17T07:56:58;2.03;;;0.77;;
52180;SDS011;38158;53.338;6.514;2023-08-17T07:59:24;3.22;;;0.50;;
52180;SDS011;38158;53.338;6.514;2023-08-17T08:01:50;3.03;;;0.50;;
52180;SDS011;38158;53.338;6.514;2023-08-17T08:04:16;3.72;;;0.60;;
52180;SDS011;38158;53.338;6.514;2023-08-17T08:06:41;2.15;;;0.63;;
52180;SDS011;38158;53.338;6.514;2023-08-17T08:09:07;2.72;;;0.50;;
52180;SDS011;38158;53.338;6.514;2023-08-17T08:11:33;1.30;;;0.50;;
52180;SDS011;38158;53.338;6.514;2023-08-17T08:13:59;2.63;;;0.60;;
52180;SDS011;38158;53.338;6.514;2023-08-17T08:16:25;2.70;;;0.55;;
52180;SDS011;38158;53.338;6.514;2023-08-17T08:18:51;1.67;;;0.57;;
52180;SDS011;38158;53.338;6.514;2023-08-17T08:21:16;2.95;;;0.90;;
52180;SDS011;38158;53.338;6.514;2023-08-17T08:23:42;2.58;;;0.55;;
52180;SDS011;38158;53.338;6.514;2023-08-17T08:26:08;3.70;;;0.80;;
52180;SDS011;38158;53.338;6.514;2023-08-17T08:28:33;2.05;;;0.75;;
52180;SDS011;38158;53.338;6.514;2023-08-17T08:31:03;4.63;;;0.70;;
52180;SDS011;38158;53.338;6.514;2023-08-17T08:33:29;2.78;;;0.75;;
52180;SDS011;38158;53.338;6.514;2023-08-17T08:35:55;6.10;;;0.90;;
52180;SDS011;38158;53.338;6.514;2023-08-17T08:38:21;4.28;;;0.73;;
52180;SDS011;38158;53.338;6.514;2023-08-17T08:40:49;1.85;;;0.65;;
52180;SDS011;38158;53.338;6.514;2023-08-17T08:43:15;1.73;;;0.70;;
52180;SDS011;38158;53.338;6.514;2023-08-17T08:45:42;2.75;;;0.93;;
52180;SDS011;38158;53.338;6.514;2023-08-17T08:48:10;1.90;;;0.55;;
52180;SDS011;38158;53.338;6.514;2023-08-17T08:53:04;2.92;;;0.50;;
52180;SDS011;38158;53.338;6.514;2023-08-17T08:55:55;2.42;;;0.70;;
52180;SDS011;38158;53.338;6.514;2023-08-17T08:58:26;3.00;;;0.73;;
52180;SDS011;38158;53.338;6.514;2023-08-17T09:00:54;2.90;;;0.70;;
52180;SDS011;38158;53.338;6.514;2023-08-17T09:03:22;3.08;;;0.60;;
52180;SDS011;38158;53.338;6.514;2023-08-17T09:05:50;2.35;;;0.70;;
52180;SDS011;38158;53.338;6.514;2023-08-17T09:08:20;2.17;;;0.77;;
52180;SDS011;38158;53.338;6.514;2023-08-17T09:10:47;3.05;;;0.77;;
52180;SDS011;38158;53.338;6.514;2023-08-17T09:13:13;2.33;;;0.82;;
52180;SDS011;38158;53.338;6.514;2023-08-17T09:15:39;3.97;;;1.00;;
52180;SDS011;38158;53.338;6.514;2023-08-17T09:18:05;2.17;;;0.63;;
52180;SDS011;38158;53.338;6.514;2023-08-17T09:20:40;2.05;;;0.68;;
52180;SDS011;38158;53.338;6.514;2023-08-17T09:23:28;2.42;;;0.68;;
52180;SDS011;38158;53.338;6.514;2023-08-17T09:25:53;2.25;;;0.77;;
52180;SDS011;38158;53.338;6.514;2023-08-17T09:28:25;4.15;;;0.90;;
52180;SDS011;38158;53.338;6.514;2023-08-17T09:33:17;3.88;;;0.70;;
52180;SDS011;38158;53.338;6.514;2023-08-17T09:35:51;3.65;;;0.60;;
52180;SDS011;38158;53.338;6.514;2023-08-17T09:38:17;3.80;;;0.70;;
52180;SDS011;38158;53.338;6.514;2023-08-17T09:40:44;2.03;;;0.73;;
52180;SDS011;38158;53.338;6.514;2023-08-17T09:43:10;3.75;;;0.80;;
52180;SDS011;38158;53.338;6.514;2023-08-17T09:45:39;4.68;;;0.82;;
52180;SDS011;38158;53.338;6.514;2023-08-17T09:48:05;3.95;;;0.60;;
52180;SDS011;38158;53.338;6.514;2023-08-17T09:50:33;4.68;;;0.73;;
52180;SDS011;38158;53.338;6.514;2023-08-17T09:52:59;3.17;;;1.00;;
52180;SDS011;38158;53.338;6.514;2023-08-17T09:55:26;1.98;;;0.63;;
52180;SDS011;38158;53.338;6.514;2023-08-17T09:57:52;2.30;;;0.80;;
52180;SDS011;38158;53.338;6.514;2023-08-17T10:00:19;5.25;;;0.70;;
52180;SDS011;38158;53.338;6.514;2023-08-17T10:02:45;2.38;;;0.65;;
52180;SDS011;38158;53.338;6.514;2023-08-17T10:05:12;2.13;;;0.63;;
52180;SDS011;38158;53.338;6.514;2023-08-17T10:07:41;5.30;;;0.88;;
52180;SDS011;38158;53.338;6.514;2023-08-17T10:10:09;2.97;;;1.00;;
52180;SDS011;38158;53.338;6.514;2023-08-17T10:12:44;4.07;;;0.80;;
52180;SDS011;38158;53.338;6.514;2023-08-17T10:15:13;5.43;;;0.90;;
52180;SDS011;38158;53.338;6.514;2023-08-17T10:17:44;4.00;;;0.80;;
52180;SDS011;38158;53.338;6.514;2023-08-17T10:20:17;1.58;;;0.75;;
52180;SDS011;38158;53.338;6.514;2023-08-17T10:22:49;2.45;;;0.70;;
52180;SDS011;38158;53.338;6.514;2023-08-17T10:25:21;2.60;;;0.95;;
52180;SDS011;38158;53.338;6.514;2023-08-17T10:27:48;2.47;;;0.40;;
52180;SDS011;38158;53.338;6.514;2023-08-17T10:30:16;2.95;;;0.55;;
52180;SDS011;38158;53.338;6.514;2023-08-17T10:32:42;2.45;;;0.60;;
52180;SDS011;38158;53.338;6.514;2023-08-17T10:35:11;3.67;;;0.70;;
52180;SDS011;38158;53.338;6.514;2023-08-17T10:37:38;1.70;;;0.68;;
52180;SDS011;38158;53.338;6.514;2023-08-17T10:40:05;4.23;;;0.73;;
52180;SDS011;38158;53.338;6.514;2023-08-17T10:42:34;4.80;;;0.80;;
52180;SDS011;38158;53.338;6.514;2023-08-17T10:45:03;4.35;;;0.93;;
52180;SDS011;38158;53.338;6.514;2023-08-17T10:47:47;3.20;;;0.70;;
52180;SDS011;38158;53.338;6.514;2023-08-17T10:52:58;2.92;;;0.73;;
52180;SDS011;38158;53.338;6.514;2023-08-17T10:55:36;2.78;;;0.70;;
52180;SDS011;38158;53.338;6.514;2023-08-17T10:58:06;3.03;;;0.77;;
52180;SDS011;38158;53.338;6.514;2023-08-17T11:00:36;2.70;;;0.85;;
52180;SDS011;38158;53.338;6.514;2023-08-17T11:05:40;2.28;;;0.40;;
52180;SDS011;38158;53.338;6.514;2023-08-17T11:08:08;3.35;;;0.70;;
52180;SDS011;38158;53.338;6.514;2023-08-17T11:10:35;2.30;;;0.73;;
52180;SDS011;38158;53.338;6.514;2023-08-17T11:13:03;2.75;;;0.70;;
52180;SDS011;38158;53.338;6.514;2023-08-17T11:15:39;1.95;;;0.60;;
52180;SDS011;38158;53.338;6.514;2023-08-17T11:18:10;2.47;;;0.73;;
52180;SDS011;38158;53.338;6.514;2023-08-17T11:20:37;4.90;;;0.95;;
52180;SDS011;38158;53.338;6.514;2023-08-17T11:23:04;3.30;;;1.10;;
52180;SDS011;38158;53.338;6.514;2023-08-17T11:25:32;4.00;;;0.80;;
52180;SDS011;38158;53.338;6.514;2023-08-17T11:27:58;6.82;;;1.33;;
52180;SDS011;38158;53.338;6.514;2023-08-17T11:30:25;3.50;;;0.93;;
52180;SDS011;38158;53.338;6.514;2023-08-17T11:32:53;6.28;;;1.10;;
52180;SDS011;38158;53.338;6.514;2023-08-17T11:35:20;3.15;;;0.82;;
52180;SDS011;38158;53.338;6.514;2023-08-17T11:37:47;1.55;;;0.57;;
52180;SDS011;38158;53.338;6.514;2023-08-17T11:42:39;6.07;;;1.10;;
52180;SDS011;38158;53.338;6.514;2023-08-17T11:45:05;5.07;;;1.67;;
52180;SDS011;38158;53.338;6.514;2023-08-17T11:47:34;3.85;;;0.82;;
52180;SDS011;38158;53.338;6.514;2023-08-17T11:50:04;3.13;;;0.70;;
52180;SDS011;38158;53.338;6.514;2023-08-17T11:52:31;3.38;;;0.80;;
52180;SDS011;38158;53.338;6.514;2023-08-17T11:54:58;4.13;;;0.85;;
52180;SDS011;38158;53.338;6.514;2023-08-17T11:57:25;7.03;;;1.05;;
52180;SDS011;38158;53.338;6.514;2023-08-17T11:59:54;2.75;;;0.82;;
52180;SDS011;38158;53.338;6.514;2023-08-17T12:02:25;2.45;;;0.90;;
52180;SDS011;38158;53.338;6.514;2023-08-17T12:04:51;4.93;;;0.85;;
52180;SDS011;38158;53.338;6.514;2023-08-17T12:07:18;4.43;;;0.88;;
52180;SDS011;38158;53.338;6.514;2023-08-17T12:09:47;2.80;;;0.80;;
52180;SDS011;38158;53.338;6.514;2023-08-17T12:12:17;4.65;;;1.05;;
52180;SDS011;38158;53.338;6.514;2023-08-17T12:14:44;5.28;;;0.85;;
52180;SDS011;38158;53.338;6.514;2023-08-17T12:17:18;3.38;;;1.15;;
52180;SDS011;38158;53.338;6.514;2023-08-17T12:19:48;6.10;;;1.05;;
52180;SDS011;38158;53.338;6.514;2023-08-17T12:22:14;2.25;;;0.80;;
52180;SDS011;38158;53.338;6.514;2023-08-17T12:24:41;2.65;;;0.73;;
52180;SDS011;38158;53.338;6.514;2023-08-17T12:27:07;3.38;;;1.15;;
52180;SDS011;38158;53.338;6.514;2023-08-17T12:29:33;3.15;;;0.95;;
52180;SDS011;38158;53.338;6.514;2023-08-17T12:31:59;3.40;;;1.20;;
52180;SDS011;38158;53.338;6.514;2023-08-17T12:34:27;3.60;;;0.85;;
52180;SDS011;38158;53.338;6.514;2023-08-17T12:36:53;3.80;;;1.00;;
52180;SDS011;38158;53.338;6.514;2023-08-17T12:39:19;5.85;;;0.80;;
52180;SDS011;38158;53.338;6.514;2023-08-17T12:41:44;4.43;;;0.60;;
52180;SDS011;38158;53.338;6.514;2023-08-17T12:44:10;1.88;;;0.73;;
52180;SDS011;38158;53.338;6.514;2023-08-17T12:46:39;4.15;;;0.80;;
52180;SDS011;38158;53.338;6.514;2023-08-17T12:49:05;3.92;;;0.82;;
52180;SDS011;38158;53.338;6.514;2023-08-17T12:51:31;3.47;;;0.85;;
52180;SDS011;38158;53.338;6.514;2023-08-17T12:53:58;3.10;;;0.73;;
52180;SDS011;38158;53.338;6.514;2023-08-17T12:56:23;4.00;;;0.70;;
52180;SDS011;38158;53.338;6.514;2023-08-17T12:58:49;3.42;;;0.80;;
52180;SDS011;38158;53.338;6.514;2023-08-17T13:01:15;1.73;;;0.60;;
52180;SDS011;38158;53.338;6.514;2023-08-17T13:03:40;2.75;;;0.88;;
52180;SDS011;38158;53.338;6.514;2023-08-17T13:06:07;3.92;;;0.70;;
52180;SDS011;38158;53.338;6.514;2023-08-17T13:08:32;4.15;;;0.80;;
52180;SDS011;38158;53.338;6.514;2023-08-17T13:10:58;5.30;;;1.02;;
52180;SDS011;38158;53.338;6.514;2023-08-17T13:13:25;4.13;;;1.13;;
52180;SDS011;38158;53.338;6.514;2023-08-17T13:15:50;2.15;;;0.77;;
52180;SDS011;38158;53.338;6.514;2023-08-17T13:18:16;4.25;;;1.10;;
52180;SDS011;38158;53.338;6.514;2023-08-17T13:20:42;7.72;;;0.90;;
52180;SDS011;38158;53.338;6.514;2023-08-17T13:23:08;3.43;;;0.90;;
52180;SDS011;38158;53.338;6.514;2023-08-17T13:25:34;2.15;;;1.02;;
52180;SDS011;38158;53.338;6.514;2023-08-17T13:28:00;3.38;;;1.08;;
52180;SDS011;38158;53.338;6.514;2023-08-17T13:30:26;2.50;;;0.70;;
52180;SDS011;38158;53.338;6.514;2023-08-17T13:32:51;2.75;;;0.77;;
52180;SDS011;38158;53.338;6.514;2023-08-17T13:35:17;4.18;;;0.77;;
52180;SDS011;38158;53.338;6.514;2023-08-17T13:37:43;3.58;;;1.10;;
52180;SDS011;38158;53.338;6.514;2023-08-17T13:40:09;7.43;;;1.20;;
52180;SDS011;38158;53.338;6.514;2023-08-17T13:42:35;4.18;;;0.90;;
52180;SDS011;38158;53.338;6.514;2023-08-17T13:45:01;3.78;;;0.95;;
52180;SDS011;38158;53.338;6.514;2023-08-17T13:47:28;3.00;;;0.88;;
52180;SDS011;38158;53.338;6.514;2023-08-17T13:49:54;3.60;;;1.00;;
52180;SDS011;38158;53.338;6.514;2023-08-17T13:52:21;3.33;;;1.00;;
52180;SDS011;38158;53.338;6.514;2023-08-17T13:54:47;3.67;;;0.90;;
52180;SDS011;38158;53.338;6.514;2023-08-17T13:57:13;6.85;;;1.50;;
52180;SDS011;38158;53.338;6.514;2023-08-17T13:59:39;2.78;;;0.95;;
52180;SDS011;38158;53.338;6.514;2023-08-17T14:02:04;2.28;;;1.10;;
52180;SDS011;38158;53.338;6.514;2023-08-17T14:04:31;5.28;;;1.63;;
52180;SDS011;38158;53.338;6.514;2023-08-17T14:06:56;5.13;;;1.10;;
52180;SDS011;38158;53.338;6.514;2023-08-17T14:09:22;2.65;;;0.95;;
52180;SDS011;38158;53.338;6.514;2023-08-17T14:11:47;3.22;;;0.73;;
52180;SDS011;38158;53.338;6.514;2023-08-17T14:14:13;3.60;;;0.95;;
52180;SDS011;38158;53.338;6.514;2023-08-17T14:16:39;3.28;;;1.50;;
52180;SDS011;38158;53.338;6.514;2023-08-17T14:19:04;5.18;;;1.40;;
52180;SDS011;38158;53.338;6.514;2023-08-17T14:21:30;4.25;;;1.20;;
52180;SDS011;38158;53.338;6.514;2023-08-17T14:23:56;4.97;;;0.98;;
52180;SDS011;38158;53.338;6.514;2023-08-17T14:26:22;3.72;;;1.02;;
52180;SDS011;38158;53.338;6.514;2023-08-17T14:28:47;3.15;;;0.90;;
52180;SDS011;38158;53.338;6.514;2023-08-17T14:31:13;3.33;;;1.02;;
52180;SDS011;38158;53.338;6.514;2023-08-17T14:33:42;4.47;;;1.15;;
52180;SDS011;38158;53.338;6.514;2023-08-17T14:36:09;4.22;;;1.17;;
52180;SDS011;38158;53.338;6.514;2023-08-17T14:38:35;5.22;;;1.50;;
52180;SDS011;38158;53.338;6.514;2023-08-17T14:41:01;4.38;;;1.48;;
52180;SDS011;38158;53.338;6.514;2023-08-17T14:43:29;3.35;;;1.30;;
52180;SDS011;38158;53.338;6.514;2023-08-17T14:45:55;4.88;;;1.48;;
52180;SDS011;38158;53.338;6.514;2023-08-17T14:48:21;3.63;;;1.20;;
52180;SDS011;38158;53.338;6.514;2023-08-17T14:50:46;3.47;;;1.02;;
52180;SDS011;38158;53.338;6.514;2023-08-17T14:53:12;6.07;;;1.70;;
52180;SDS011;38158;53.338;6.514;2023-08-17T14:55:38;5.05;;;1.58;;
52180;SDS011;38158;53.338;6.514;2023-08-17T14:58:03;3.95;;;1.45;;
52180;SDS011;38158;53.338;6.514;2023-08-17T15:00:29;4.53;;;1.10;;
52180;SDS011;38158;53.338;6.514;2023-08-17T15:02:55;6.68;;;2.00;;
52180;SDS011;38158;53.338;6.514;2023-08-17T15:05:22;2.75;;;1.15;;
52180;SDS011;38158;53.338;6.514;2023-08-17T15:07:49;2.35;;;1.23;;